Time;durP1;ratioP1;P1;durP2;ratioP2;P2;SDS_P1;SDS_P2;PMS_P1;PMS_P2;Temp;Humidity;BMP_temperature;BMP_pressure;BME280_temperature;BME280_humidity;BME280_pressure;Samples;Min_cycle;Max_cycle;Signal;HPM_P1;HPM_P2
2024/02/19 00:01:50;;;;;;;3.90;3.30;;;9.60;99.90;;;;;;5033108;28;20434;-73
2024/02/19 00:04:36;;;;;;;5.00;3.73;;;9.60;99.90;;;;;;5033910;28;21008;-72
2024/02/19 00:07:22;;;;;;;4.73;4.10;;;9.70;99.90;;;;;;5034603;28;20414;-73
2024/02/19 00:10:10;;;;;;;8.57;4.10;;;9.70;99.90;;;;;;5034727;28;20412;-73
2024/02/19 00:12:55;;;;;;;5.30;4.80;;;9.70;99.90;;;;;;5034789;28;20408;-73
2024/02/19 00:15:41;;;;;;;4.47;4.07;;;9.70;99.90;;;;;;5031470;28;20590;-73
2024/02/19 00:18:26;;;;;;;5.30;4.50;;;9.60;99.90;;;;;;5030210;28;20458;-73
2024/02/19 00:21:12;;;;;;;5.30;4.23;;;9.70;99.90;;;;;;5034533;28;20410;-73
2024/02/19 00:23:57;;;;;;;4.77;4.27;;;9.70;99.90;;;;;;5030210;28;20932;-73
2024/02/19 00:26:45;;;;;;;4.93;4.20;;;9.80;99.90;;;;;;5031523;28;20489;-73
2024/02/19 00:29:30;;;;;;;3.90;3.50;;;9.70;99.90;;;;;;5034682;28;20427;-73
2024/02/19 00:32:16;;;;;;;4.00;3.60;;;9.70;99.90;;;;;;5032232;28;20402;-73
2024/02/19 00:35:01;;;;;;;6.50;4.10;;;9.80;99.90;;;;;;5030730;28;20448;-73
2024/02/19 00:37:47;;;;;;;4.07;3.67;;;9.80;99.90;;;;;;5033658;28;20453;-73
2024/02/19 00:40:32;;;;;;;9.23;4.30;;;9.90;99.90;;;;;;5034706;28;20446;-73
2024/02/19 00:43:19;;;;;;;4.00;3.60;;;9.90;99.90;;;;;;5035489;28;20502;-73
2024/02/19 00:46:05;;;;;;;4.70;4.20;;;9.90;99.90;;;;;;5035999;28;20421;-73
2024/02/19 00:48:51;;;;;;;4.40;3.90;;;9.90;99.90;;;;;;5028826;28;20894;-73
2024/02/19 00:51:36;;;;;;;4.03;3.73;;;9.90;99.90;;;;;;5034879;28;20442;-73
2024/02/19 00:54:22;;;;;;;4.20;3.60;;;9.90;99.90;;;;;;5032368;28;20838;-73
2024/02/19 00:57:08;;;;;;;6.43;5.13;;;9.90;99.90;;;;;;5033031;28;21066;-73
2024/02/19 00:59:55;;;;;;;7.37;5.50;;;10.00;99.90;;;;;;5030401;28;20986;-73
2024/02/19 01:02:41;;;;;;;5.47;4.97;;;9.90;99.90;;;;;;5030976;28;20427;-73
2024/02/19 01:05:27;;;;;;;5.90;5.30;;;10.00;99.90;;;;;;5032276;28;20583;-73
2024/02/19 01:08:12;;;;;;;5.70;5.10;;;9.90;99.90;;;;;;5032796;28;20421;-73
2024/02/19 01:10:58;;;;;;;5.27;4.77;;;10.00;99.90;;;;;;5031660;28;20425;-73
2024/02/19 01:13:44;;;;;;;5.53;5.03;;;10.00;99.90;;;;;;5034194;28;20467;-73
2024/02/19 01:16:32;;;;;;;7.67;5.13;;;10.00;99.90;;;;;;5032295;28;20509;-73
2024/02/19 01:19:18;;;;;;;4.70;4.20;;;10.00;99.90;;;;;;5032560;28;20478;-73
2024/02/19 01:22:04;;;;;;;4.83;4.40;;;10.00;99.90;;;;;;5033131;28;21016;-73
2024/02/19 01:24:50;;;;;;;4.47;4.07;;;10.00;99.90;;;;;;5031219;28;20551;-73
2024/02/19 01:27:35;;;;;;;5.20;4.30;;;10.10;99.90;;;;;;5033351;28;20522;-73
2024/02/19 01:30:21;;;;;;;6.40;4.97;;;10.00;99.90;;;;;;5030141;28;20403;-73
2024/02/19 01:33:08;;;;;;;5.17;4.50;;;10.00;99.90;;;;;;5032201;28;20409;-73
2024/02/19 01:35:54;;;;;;;4.03;3.63;;;10.10;99.90;;;;;;5036803;28;20437;-73
2024/02/19 01:38:41;;;;;;;4.77;4.27;;;10.10;99.90;;;;;;5043109;28;20556;-72
2024/02/19 01:41:27;;;;;;;5.23;4.60;;;10.10;99.90;;;;;;5038024;28;20988;-72
2024/02/19 01:44:12;;;;;;;4.80;4.33;;;10.10;99.90;;;;;;5036587;28;20437;-72
2024/02/19 01:46:59;;;;;;;6.00;4.70;;;10.10;99.90;;;;;;5027154;28;20511;-73
2024/02/19 01:49:45;;;;;;;6.23;4.60;;;10.00;99.90;;;;;;5028782;28;20414;-72
2024/02/19 01:52:31;;;;;;;7.30;4.57;;;10.00;99.90;;;;;;5033543;28;20431;-72
2024/02/19 01:55:18;;;;;;;7.13;4.97;;;10.00;99.90;;;;;;5033720;28;20472;-73
2024/02/19 01:58:05;;;;;;;5.40;4.90;;;9.90;99.90;;;;;;5034528;28;20467;-72
2024/02/19 02:00:51;;;;;;;5.17;4.50;;;10.00;99.90;;;;;;5026355;28;20536;-71
2024/02/19 02:03:37;;;;;;;5.23;4.73;;;10.00;99.90;;;;;;5030621;28;20482;-72
2024/02/19 02:06:25;;;;;;;7.20;5.03;;;10.00;99.90;;;;;;5018954;28;20530;-70
2024/02/19 02:09:11;;;;;;;7.57;5.67;;;10.00;99.90;;;;;;5024336;28;20516;-72
2024/02/19 02:11:57;;;;;;;5.00;4.50;;;10.00;99.90;;;;;;5029796;28;20503;-72
2024/02/19 02:14:42;;;;;;;5.70;5.03;;;10.00;99.90;;;;;;5030619;28;20637;-72
2024/02/19 02:17:28;;;;;;;6.53;5.83;;;10.00;99.90;;;;;;5030157;28;20448;-72
2024/02/19 02:20:14;;;;;;;6.50;5.60;;;10.00;99.90;;;;;;5032336;28;20447;-72
2024/02/19 02:23:01;;;;;;;6.47;5.50;;;10.10;99.90;;;;;;5028146;28;20430;-71
2024/02/19 02:25:47;;;;;;;7.83;5.60;;;10.10;99.90;;;;;;5028493;28;20479;-72
2024/02/19 02:28:34;;;;;;;10.00;5.27;;;10.10;99.90;;;;;;5024256;28;20587;-72
2024/02/19 02:31:20;;;;;;;10.17;5.73;;;10.10;99.90;;;;;;5028380;28;20422;-72
2024/02/19 02:34:05;;;;;;;5.80;4.73;;;10.10;99.90;;;;;;5026353;28;20429;-72
2024/02/19 02:36:51;;;;;;;6.37;5.40;;;10.10;99.90;;;;;;5034401;28;20486;-73
2024/02/19 02:39:37;;;;;;;6.10;5.50;;;10.10;99.90;;;;;;5037095;28;20523;-72
2024/02/19 02:42:22;;;;;;;9.97;6.70;;;10.10;99.90;;;;;;5031263;28;20450;-72
2024/02/19 02:45:10;;;;;;;8.17;6.27;;;10.10;99.90;;;;;;5024767;28;20849;-73
2024/02/19 02:47:56;;;;;;;9.40;5.90;;;10.10;99.90;;;;;;5025163;28;20442;-73
2024/02/19 02:50:42;;;;;;;6.03;5.43;;;10.10;99.90;;;;;;5028943;28;20430;-73
2024/02/19 02:53:28;;;;;;;7.33;5.67;;;10.10;99.90;;;;;;5036272;28;20446;-73
2024/02/19 02:56:19;;;;;;;11.10;5.60;;;10.10;99.90;;;;;;5030802;28;20405;-73
2024/02/19 02:59:04;;;;;;;7.47;5.80;;;10.10;99.90;;;;;;5032593;28;21014;-73
2024/02/19 03:01:51;;;;;;;8.53;6.20;;;10.10;99.90;;;;;;5034088;28;20479;-73
2024/02/19 03:04:37;;;;;;;7.50;5.37;;;10.20;99.90;;;;;;5031237;28;20450;-73
2024/02/19 03:07:23;;;;;;;9.90;6.30;;;10.10;99.90;;;;;;5034484;28;20512;-73
2024/02/19 03:10:11;;;;;;;7.73;6.00;;;10.20;99.90;;;;;;5035066;28;20867;-73
2024/02/19 03:12:56;;;;;;;7.30;4.97;;;10.20;99.90;;;;;;5037353;28;20439;-73
2024/02/19 03:15:42;;;;;;;9.53;5.23;;;10.20;99.90;;;;;;5033365;28;20502;-73
2024/02/19 03:18:29;;;;;;;6.40;5.10;;;10.20;99.90;;;;;;5038632;28;20517;-73
2024/02/19 03:21:15;;;;;;;6.10;4.63;;;10.20;99.90;;;;;;5035888;28;20401;-72
2024/02/19 03:24:01;;;;;;;8.53;4.90;;;10.30;99.90;;;;;;5034079;28;20436;-73
2024/02/19 03:26:46;;;;;;;6.93;4.60;;;10.30;99.90;;;;;;5027714;28;20426;-73
2024/02/19 03:29:32;;;;;;;7.07;5.20;;;10.30;99.90;;;;;;5034236;28;20437;-73
2024/02/19 03:32:18;;;;;;;8.80;3.67;;;10.30;99.90;;;;;;5038506;28;20478;-72
2024/02/19 03:35:05;;;;;;;5.60;4.40;;;10.30;99.90;;;;;;5038261;28;20458;-73
2024/02/19 03:37:51;;;;;;;6.70;4.33;;;10.30;99.90;;;;;;5023399;28;20814;-73
2024/02/19 03:40:37;;;;;;;5.40;4.20;;;10.30;99.90;;;;;;5024044;28;20441;-73
2024/02/19 03:43:22;;;;;;;6.43;4.03;;;10.30;99.90;;;;;;5028241;28;20458;-73
2024/02/19 03:46:08;;;;;;;6.73;3.70;;;10.20;99.90;;;;;;5024839;28;20532;-73
2024/02/19 03:48:54;;;;;;;6.77;3.63;;;10.20;99.90;;;;;;5036780;28;20943;-72
2024/02/19 03:51:41;;;;;;;11.10;2.80;;;10.30;99.90;;;;;;5032144;28;20912;-72
2024/02/19 03:54:27;;;;;;;4.93;3.07;;;10.30;99.90;;;;;;5028615;28;21049;-73
2024/02/19 03:57:12;;;;;;;5.40;2.33;;;10.30;99.90;;;;;;5025781;28;21207;-73
2024/02/19 03:59:58;;;;;;;3.73;2.80;;;10.30;99.90;;;;;;5031589;28;20476;-72
2024/02/19 04:02:44;;;;;;;4.57;2.83;;;10.30;99.90;;;;;;5028239;28;21019;-73
2024/02/19 04:05:30;;;;;;;5.90;2.73;;;10.30;99.90;;;;;;5033081;28;21050;-73
2024/02/19 04:08:17;;;;;;;4.67;2.70;;;10.30;99.90;;;;;;5032666;28;20453;-73
2024/02/19 04:11:02;;;;;;;9.53;2.57;;;10.30;99.90;;;;;;5027680;28;21004;-72
2024/02/19 04:13:48;;;;;;;4.37;2.50;;;10.30;99.90;;;;;;5033170;28;20777;-73
2024/02/19 04:16:34;;;;;;;4.80;2.13;;;10.30;99.90;;;;;;5035406;28;20434;-73
2024/02/19 04:19:20;;;;;;;5.13;2.20;;;10.30;99.90;;;;;;5023422;28;20483;-73
2024/02/19 04:22:05;;;;;;;4.47;2.40;;;10.20;99.90;;;;;;5016707;28;21060;-73
2024/02/19 04:24:53;;;;;;;8.10;2.30;;;10.30;99.90;;;;;;5018657;28;20502;-73
2024/02/19 04:27:38;;;;;;;3.50;2.03;;;10.20;99.90;;;;;;5030163;28;20533;-73
2024/02/19 04:30:24;;;;;;;9.00;3.03;;;10.30;99.90;;;;;;5027735;28;20497;-73
2024/02/19 04:33:10;;;;;;;3.20;2.17;;;10.30;99.90;;;;;;5025156;28;20583;-73
2024/02/19 04:35:55;;;;;;;3.60;1.73;;;10.30;99.90;;;;;;5029824;28;20490;-72
2024/02/19 04:38:41;;;;;;;8.27;3.20;;;10.30;99.90;;;;;;5023502;28;20450;-72
2024/02/19 04:41:28;;;;;;;2.93;2.10;;;10.30;99.90;;;;;;5023326;28;20446;-72
2024/02/19 04:44:14;;;;;;;6.30;2.00;;;10.30;99.90;;;;;;5021764;28;20495;-73
2024/02/19 04:47:00;;;;;;;4.20;1.87;;;10.30;99.90;;;;;;5037698;28;20427;-73
2024/02/19 04:49:45;;;;;;;3.33;1.70;;;10.20;99.90;;;;;;5029848;28;20439;-73
2024/02/19 04:52:31;;;;;;;5.50;2.47;;;10.20;99.90;;;;;;5023897;28;20953;-73
2024/02/19 04:55:17;;;;;;;3.20;1.70;;;10.20;99.90;;;;;;5031203;28;20483;-73
2024/02/19 04:58:04;;;;;;;7.53;2.50;;;10.20;99.90;;;;;;5027808;28;20419;-72
2024/02/19 05:00:50;;;;;;;4.40;2.03;;;10.20;99.90;;;;;;5033060;28;20820;-72
2024/02/19 05:03:36;;;;;;;2.90;2.00;;;10.20;99.90;;;;;;5034151;28;20454;-73
2024/02/19 05:06:22;;;;;;;3.40;1.60;;;10.20;99.90;;;;;;5020530;28;20459;-72
2024/02/19 05:09:08;;;;;;;6.97;1.77;;;10.20;99.90;;;;;;5024418;28;20455;-73
2024/02/19 05:11:54;;;;;;;6.93;2.20;;;10.20;99.90;;;;;;5025005;28;20610;-73
2024/02/19 05:14:42;;;;;;;3.30;1.30;;;10.10;99.90;;;;;;5037783;28;20467;-73
2024/02/19 05:17:28;;;;;;;3.13;1.60;;;10.10;99.90;;;;;;5032973;28;20504;-72
2024/02/19 05:20:14;;;;;;;3.03;1.13;;;10.00;99.90;;;;;;5029132;28;20478;-73
2024/02/19 05:23:00;;;;;;;5.60;1.73;;;10.10;99.90;;;;;;5026487;28;20484;-73
2024/02/19 05:25:46;;;;;;;3.77;1.70;;;10.10;99.90;;;;;;5025257;28;20467;-73
2024/02/19 05:28:32;;;;;;;4.67;1.50;;;10.10;99.90;;;;;;5015664;28;20480;-73
2024/02/19 05:31:32;;;;;;;2.63;1.40;;;10.10;99.90;;;;;;5026189;28;20501;-73
2024/02/19 05:34:18;;;;;;;3.20;1.20;;;10.10;99.90;;;;;;5028225;28;20458;-73
2024/02/19 05:37:04;;;;;;;3.87;1.53;;;10.10;99.90;;;;;;5022937;28;20938;-73
2024/02/19 05:39:50;;;;;;;5.23;1.60;;;10.10;99.90;;;;;;5024108;28;20977;-73
2024/02/19 05:42:36;;;;;;;2.23;1.00;;;10.10;99.90;;;;;;5027801;28;20459;-73
2024/02/19 05:45:22;;;;;;;3.10;1.17;;;10.10;99.90;;;;;;5031673;28;20621;-73
2024/02/19 05:48:09;;;;;;;3.93;1.30;;;10.10;99.90;;;;;;5024922;28;20467;-73
2024/02/19 05:50:55;;;;;;;3.90;1.50;;;10.00;99.90;;;;;;5026751;28;20470;-73
2024/02/19 05:53:41;;;;;;;4.13;1.40;;;10.00;99.90;;;;;;5029311;28;20437;-72
2024/02/19 05:56:29;;;;;;;2.30;1.30;;;10.10;99.90;;;;;;5029221;28;20495;-73
2024/02/19 05:59:14;;;;;;;5.67;2.27;;;10.10;99.90;;;;;;5026195;28;20471;-73
2024/02/19 06:02:00;;;;;;;7.13;1.60;;;10.10;99.90;;;;;;5029784;28;20467;-72
2024/02/19 06:04:47;;;;;;;4.90;1.17;;;10.20;99.90;;;;;;5028009;28;20499;-73
2024/02/19 06:07:33;;;;;;;4.60;1.30;;;10.10;99.90;;;;;;5031900;28;20465;-72
2024/02/19 06:10:18;;;;;;;6.10;1.40;;;10.10;99.90;;;;;;5036020;28;20451;-72
2024/02/19 06:13:04;;;;;;;3.00;1.40;;;10.10;99.90;;;;;;5031015;28;20471;-73
2024/02/19 06:15:50;;;;;;;2.63;1.03;;;10.10;99.90;;;;;;5033857;28;20459;-73
2024/02/19 06:18:36;;;;;;;2.87;1.43;;;10.10;99.90;;;;;;5037180;28;20435;-73
2024/02/19 06:21:23;;;;;;;6.40;1.00;;;10.00;99.90;;;;;;5034464;28;20432;-72
2024/02/19 06:24:08;;;;;;;2.07;1.23;;;10.00;99.90;;;;;;5031876;28;20468;-73
2024/02/19 06:26:54;;;;;;;4.53;1.40;;;10.00;99.90;;;;;;5034184;28;20466;-73
2024/02/19 06:29:40;;;;;;;4.97;1.40;;;10.00;99.90;;;;;;5024341;28;20450;-73
2024/02/19 06:32:25;;;;;;;3.73;1.00;;;10.00;99.90;;;;;;5032421;28;20455;-73
2024/02/19 06:35:11;;;;;;;6.37;1.60;;;10.00;99.90;;;;;;5022339;28;20457;-73
2024/02/19 06:37:58;;;;;;;7.90;1.30;;;10.00;99.90;;;;;;5028707;28;20472;-73
2024/02/19 06:40:43;;;;;;;11.23;1.13;;;10.00;99.90;;;;;;5020097;28;20467;-72
2024/02/19 06:43:29;;;;;;;5.63;1.20;;;10.00;99.90;;;;;;5025350;28;20987;-73
2024/02/19 06:46:16;;;;;;;5.20;1.40;;;10.00;99.90;;;;;;5022250;28;20438;-73
2024/02/19 06:49:02;;;;;;;3.27;1.10;;;10.00;99.90;;;;;;5023427;28;20514;-73
2024/02/19 06:51:47;;;;;;;3.33;1.23;;;10.00;99.90;;;;;;5023145;28;20454;-73
2024/02/19 06:54:35;;;;;;;5.37;1.60;;;10.00;99.90;;;;;;5021569;28;20612;-73
2024/02/19 06:57:20;;;;;;;4.73;1.20;;;9.90;99.90;;;;;;5026015;28;20459;-73
2024/02/19 07:00:08;;;;;;;3.57;1.30;;;9.90;99.90;;;;;;5016657;28;20621;-73
2024/02/19 07:02:53;;;;;;;6.23;1.43;;;9.90;99.90;;;;;;5026401;28;20443;-72
2024/02/19 07:05:39;;;;;;;2.93;1.30;;;10.00;99.90;;;;;;5019404;28;20468;-73
2024/02/19 07:08:25;;;;;;;2.90;1.23;;;10.00;99.90;;;;;;5024098;28;20458;-72
2024/02/19 07:11:11;;;;;;;5.43;1.57;;;10.00;99.90;;;;;;5027632;28;20906;-73
2024/02/19 07:13:57;;;;;;;3.13;1.07;;;10.00;99.90;;;;;;5023823;28;20455;-73
2024/02/19 07:16:43;;;;;;;2.67;1.60;;;10.00;99.90;;;;;;5017726;28;20446;-73
2024/02/19 07:19:28;;;;;;;13.67;1.80;;;10.00;99.90;;;;;;5022975;28;20471;-73
2024/02/19 07:22:14;;;;;;;4.13;1.70;;;10.00;99.90;;;;;;5028429;28;20494;-73
2024/02/19 07:25:00;;;;;;;4.47;1.50;;;10.00;99.90;;;;;;5023127;28;20803;-73
2024/02/19 07:27:47;;;;;;;4.63;1.67;;;10.00;99.90;;;;;;5025241;28;20458;-73
2024/02/19 07:30:35;;;;;;;10.87;2.57;;;9.90;99.90;;;;;;5019727;28;20594;-73
2024/02/19 07:33:22;;;;;;;7.87;1.83;;;9.90;99.90;;;;;;5018827;28;21117;-73
2024/02/19 07:36:08;;;;;;;8.50;1.67;;;9.90;99.90;;;;;;5018254;23;20855;-77
2024/02/19 07:38:53;;;;;;;5.23;1.97;;;9.90;99.90;;;;;;4983206;28;20431;-77
2024/02/19 07:41:39;;;;;;;5.77;1.70;;;10.00;99.90;;;;;;4989095;28;20832;-78
2024/02/19 07:44:26;;;;;;;4.23;1.53;;;10.00;99.90;;;;;;4986141;28;20465;-78
2024/02/19 07:47:12;;;;;;;4.53;1.53;;;10.00;99.90;;;;;;4981108;28;20915;-78
2024/02/19 07:49:57;;;;;;;6.50;1.60;;;10.00;99.90;;;;;;4985581;28;20448;-77
2024/02/19 07:52:43;;;;;;;4.27;1.60;;;10.00;99.90;;;;;;4987806;28;20505;-77
2024/02/19 07:55:31;;;;;;;10.90;2.40;;;10.00;99.90;;;;;;4988383;28;20472;-77
2024/02/19 07:58:20;;;;;;;3.20;2.13;;;10.00;99.90;;;;;;4983634;28;21167;-77
2024/02/19 08:01:07;;;;;;;8.13;1.40;;;10.00;99.90;;;;;;4990763;28;20481;-76
2024/02/19 08:03:52;;;;;;;5.87;1.80;;;10.00;99.90;;;;;;4991493;28;20444;-77
2024/02/19 08:06:38;;;;;;;7.00;1.90;;;9.90;99.90;;;;;;4993761;28;20496;-77
2024/02/19 08:09:24;;;;;;;5.50;1.50;;;9.90;99.90;;;;;;4985441;28;21366;-76
2024/02/19 08:12:10;;;;;;;7.83;1.60;;;9.90;99.90;;;;;;4986749;28;20538;-76
2024/02/19 08:14:57;;;;;;;5.73;1.20;;;9.80;99.90;;;;;;4985997;28;20492;-76
2024/02/19 08:17:44;;;;;;;7.93;1.70;;;9.90;99.90;;;;;;4993505;28;21021;-78
2024/02/19 08:20:29;;;;;;;2.03;1.07;;;9.90;99.90;;;;;;4983232;28;20479;-77
2024/02/19 08:23:15;;;;;;;3.90;2.20;;;9.80;99.90;;;;;;4985790;28;20593;-78
2024/02/19 08:26:01;;;;;;;3.33;1.20;;;9.80;99.90;;;;;;4988564;28;20585;-77
2024/02/19 08:28:48;;;;;;;5.90;1.50;;;9.80;99.90;;;;;;4985020;28;20526;-75
2024/02/19 08:31:33;;;;;;;3.27;1.60;;;9.80;99.90;;;;;;4984349;28;20553;-76
2024/02/19 08:34:20;;;;;;;2.87;1.67;;;9.90;99.90;;;;;;4983268;28;20693;-76
2024/02/19 08:37:06;;;;;;;2.93;1.30;;;9.90;99.90;;;;;;4986835;28;20445;-75
2024/02/19 08:39:52;;;;;;;9.90;1.57;;;9.90;99.90;;;;;;4987397;28;20627;-75
2024/02/19 08:42:38;;;;;;;7.77;1.50;;;10.00;99.90;;;;;;4991803;28;20427;-76
2024/02/19 08:45:24;;;;;;;4.10;1.17;;;10.10;99.90;;;;;;4991216;28;21019;-76
2024/02/19 08:48:09;;;;;;;3.63;1.53;;;10.20;99.90;;;;;;4986510;28;20452;-76
2024/02/19 08:50:56;;;;;;;4.57;1.83;;;10.30;99.90;;;;;;4996109;28;20489;-76
2024/02/19 08:53:42;;;;;;;4.10;1.40;;;10.30;99.90;;;;;;4988400;28;20419;-76
2024/02/19 08:56:28;;;;;;;5.97;1.50;;;10.30;99.90;;;;;;4990351;28;21042;-76
2024/02/19 08:59:13;;;;;;;5.30;1.40;;;10.30;99.90;;;;;;4991210;28;20501;-76
2024/02/19 09:01:59;;;;;;;12.57;1.57;;;10.40;99.90;;;;;;4990652;28;20964;-76
2024/02/19 09:04:45;;;;;;;1.90;0.90;;;10.40;99.90;;;;;;4991081;28;20445;-75
2024/02/19 09:07:32;;;;;;;4.13;2.30;;;10.50;99.90;;;;;;4992102;28;20431;-76
2024/02/19 09:10:18;;;;;;;3.83;1.17;;;10.50;99.90;;;;;;4990635;28;20520;-76
2024/02/19 09:13:06;;;;;;;4.07;1.10;;;10.50;99.90;;;;;;4988140;28;20785;-76
2024/02/19 09:15:52;;;;;;;2.40;1.30;;;10.60;99.90;;;;;;4989339;28;20997;-75
2024/02/19 09:18:38;;;;;;;5.03;1.83;;;10.70;99.90;;;;;;4989435;28;20523;-76
2024/02/19 09:21:23;;;;;;;5.27;1.53;;;10.70;99.90;;;;;;4988641;28;20477;-75
2024/02/19 09:24:11;;;;;;;6.00;1.20;;;10.80;99.90;;;;;;4989670;28;20475;-75
2024/02/19 09:26:57;;;;;;;4.53;1.10;;;10.80;99.90;;;;;;4988405;28;20453;-75
2024/02/19 09:29:43;;;;;;;4.63;1.10;;;10.70;99.90;;;;;;4990872;28;20487;-75
2024/02/19 09:32:28;;;;;;;4.43;1.60;;;10.70;99.90;;;;;;4989359;28;20495;-75
2024/02/19 09:35:16;;;;;;;5.40;1.40;;;10.70;99.90;;;;;;4985583;28;20461;-76
2024/02/19 09:38:01;;;;;;;4.43;1.50;;;10.70;99.90;;;;;;4988091;28;20457;-76
2024/02/19 09:40:49;;;;;;;4.40;1.57;;;10.60;99.90;;;;;;4987857;28;21114;-75
2024/02/19 09:43:35;;;;;;;7.40;1.30;;;10.60;99.90;;;;;;4989209;28;21092;-76
2024/02/19 09:46:22;;;;;;;2.80;1.03;;;10.70;99.90;;;;;;4984818;28;22423;-75
2024/02/19 09:49:11;;;;;;;4.93;0.90;;;10.80;99.90;;;;;;4989525;28;20479;-76
2024/02/19 09:52:00;;;;;;;3.60;1.00;;;10.90;99.90;;;;;;4990244;28;20837;-76
2024/02/19 09:54:47;;;;;;;3.63;1.23;;;10.80;99.90;;;;;;4993050;28;20841;-76
2024/02/19 09:57:33;;;;;;;7.40;1.73;;;10.80;99.90;;;;;;4993622;28;20529;-76
2024/02/19 10:00:21;;;;;;;4.23;1.10;;;10.90;99.90;;;;;;4993514;28;20931;-76
2024/02/19 10:03:08;;;;;;;9.43;1.10;;;10.80;99.90;;;;;;4988667;28;20428;-77
2024/02/19 10:05:53;;;;;;;3.70;1.20;;;10.90;99.90;;;;;;4986167;28;20544;-76
2024/02/19 10:08:39;;;;;;;6.33;1.40;;;11.00;99.90;;;;;;4985783;28;20427;-76
2024/02/19 10:11:25;;;;;;;2.70;0.90;;;10.90;99.90;;;;;;4995039;28;20430;-77
2024/02/19 10:14:11;;;;;;;3.10;1.20;;;11.00;99.90;;;;;;4996498;28;20549;-78
2024/02/19 10:17:00;;;;;;;5.97;1.20;;;11.00;99.90;;;;;;4998057;28;20525;-79
2024/02/19 10:19:46;;;;;;;3.20;1.10;;;11.10;99.90;;;;;;4990572;28;20452;-79
2024/02/19 10:22:31;;;;;;;5.63;1.10;;;11.10;99.90;;;;;;4988466;28;20980;-77
2024/02/19 10:25:18;;;;;;;7.60;1.40;;;11.10;99.90;;;;;;4987827;28;20488;-78
2024/02/19 10:28:04;;;;;;;3.20;1.37;;;11.20;99.90;;;;;;4989684;28;20550;-77
2024/02/19 10:30:52;;;;;;;3.30;0.80;;;11.20;99.90;;;;;;4989310;28;20408;-78
2024/02/19 10:33:39;;;;;;;4.47;0.83;;;11.30;99.90;;;;;;4984140;28;20457;-77
2024/02/19 10:36:25;;;;;;;3.10;1.07;;;11.30;99.90;;;;;;4988067;28;20481;-77
2024/02/19 10:39:11;;;;;;;2.63;1.13;;;11.30;99.90;;;;;;4988058;28;20448;-76
2024/02/19 10:41:57;;;;;;;5.87;1.10;;;11.40;99.90;;;;;;4984916;28;20459;-76
2024/02/19 10:44:43;;;;;;;2.33;1.00;;;11.40;99.90;;;;;;4987497;28;20435;-76
2024/02/19 10:47:30;;;;;;;2.03;1.27;;;11.40;99.90;;;;;;4983113;28;20477;-75
2024/02/19 10:50:18;;;;;;;10.30;1.10;;;11.40;99.90;;;;;;4988099;28;20580;-77
2024/02/19 10:53:06;;;;;;;4.03;0.90;;;11.40;99.90;;;;;;4988765;28;20465;-77
2024/02/19 10:55:54;;;;;;;4.93;1.17;;;11.50;99.90;;;;;;4988322;28;20560;-75
2024/02/19 10:58:51;;;;;;;5.63;1.63;;;11.60;99.90;;;;;;4988398;28;20542;-76
2024/02/19 11:01:44;;;;;;;4.80;1.20;;;11.70;99.90;;;;;;4989434;28;20497;-76
2024/02/19 11:04:34;;;;;;;3.10;1.20;;;11.80;99.90;;;;;;4983592;28;20492;-76
2024/02/19 11:07:22;;;;;;;3.20;1.33;;;11.90;99.90;;;;;;4983777;28;20600;-76
2024/02/19 11:10:09;;;;;;;4.77;1.53;;;11.90;99.90;;;;;;4986893;28;20524;-76
2024/02/19 11:13:04;;;;;;;5.10;1.20;;;12.10;99.90;;;;;;4982634;28;20510;-75
2024/02/19 11:15:49;;;;;;;2.70;1.27;;;12.20;99.90;;;;;;4978179;28;20946;-76
2024/02/19 11:18:35;;;;;;;3.70;1.37;;;12.40;99.90;;;;;;4984985;28;20469;-78
2024/02/19 11:21:22;;;;;;;5.90;1.30;;;12.50;99.90;;;;;;4984389;28;20488;-76
2024/02/19 11:24:08;;;;;;;6.80;1.47;;;12.50;99.90;;;;;;4984496;28;20589;-75
2024/02/19 11:26:55;;;;;;;3.80;1.47;;;12.60;99.90;;;;;;4983732;28;20484;-75
2024/02/19 11:29:41;;;;;;;2.67;1.00;;;12.50;99.90;;;;;;4989399;28;20559;-75
2024/02/19 11:32:26;;;;;;;3.00;1.17;;;12.50;99.90;;;;;;4984828;28;20423;-76
2024/02/19 11:35:14;;;;;;;2.77;1.40;;;12.40;99.90;;;;;;4987846;28;20473;-76
2024/02/19 11:38:01;;;;;;;2.00;0.80;;;12.40;99.90;;;;;;4988472;28;20955;-75
2024/02/19 11:40:46;;;;;;;7.30;1.23;;;12.30;99.90;;;;;;4989901;28;21019;-76
2024/02/19 11:43:32;;;;;;;3.63;1.17;;;12.20;99.90;;;;;;4987433;28;20431;-76
2024/02/19 11:46:19;;;;;;;3.70;1.30;;;12.20;99.90;;;;;;4986296;28;20527;-77
2024/02/19 11:49:05;;;;;;;5.13;1.20;;;12.30;99.90;;;;;;4989794;28;20469;-76
2024/02/19 11:51:50;;;;;;;4.67;1.70;;;12.30;99.90;;;;;;4990706;28;20436;-76
2024/02/19 11:54:39;;;;;;;3.40;1.40;;;12.30;99.90;;;;;;4989052;28;20453;-77
2024/02/19 11:57:25;;;;;;;3.20;1.30;;;12.20;99.90;;;;;;4991037;28;20987;-77
2024/02/19 12:00:13;;;;;;;6.30;1.10;;;12.20;99.90;;;;;;4988003;28;20853;-76
2024/02/19 12:02:59;;;;;;;5.10;1.33;;;12.20;99.90;;;;;;4986713;28;20457;-78
2024/02/19 12:05:46;;;;;;;5.60;2.27;;;12.20;99.90;;;;;;4990612;28;20476;-77
2024/02/19 12:08:33;;;;;;;2.20;0.90;;;12.20;99.90;;;;;;4988238;28;21039;-77
2024/02/19 12:11:20;;;;;;;5.43;1.40;;;12.10;99.90;;;;;;4991020;28;20449;-76
2024/02/19 12:14:06;;;;;;;10.43;2.00;;;12.00;99.90;;;;;;4992364;28;20453;-75
2024/02/19 12:16:55;;;;;;;5.00;1.60;;;12.10;99.90;;;;;;4988119;28;21111;-76
2024/02/19 12:19:40;;;;;;;5.77;1.90;;;12.10;99.90;;;;;;4984248;28;20458;-77
2024/02/19 12:22:26;;;;;;;4.30;1.47;;;12.00;99.90;;;;;;4988188;28;20478;-76
2024/02/19 12:25:12;;;;;;;5.90;1.40;;;12.00;99.90;;;;;;4986797;28;20472;-76
2024/02/19 12:27:59;;;;;;;7.20;1.70;;;12.00;99.90;;;;;;4988907;28;20428;-75
2024/02/19 12:30:44;;;;;;;5.07;1.10;;;11.90;99.90;;;;;;4985592;28;20617;-74
2024/02/19 12:33:30;;;;;;;5.77;2.33;;;11.90;99.90;;;;;;4990625;28;20516;-73
2024/02/19 12:36:16;;;;;;;2.70;1.30;;;12.00;99.90;;;;;;4988416;28;20459;-75
2024/02/19 12:39:02;;;;;;;6.00;1.77;;;11.90;99.90;;;;;;4986708;28;20451;-74
2024/02/19 12:41:48;;;;;;;6.70;1.53;;;12.00;99.90;;;;;;4991465;28;20617;-76
2024/02/19 12:44:35;;;;;;;8.40;1.30;;;12.00;99.90;;;;;;4989458;28;20448;-76
2024/02/19 12:47:23;;;;;;;3.83;1.90;;;12.00;99.90;;;;;;4989676;28;20508;-76
2024/02/19 12:50:09;;;;;;;2.77;1.47;;;12.00;99.90;;;;;;4990917;28;20443;-76
2024/02/19 12:52:55;;;;;;;5.20;1.67;;;11.90;99.90;;;;;;4987820;28;20955;-76
2024/02/19 12:55:41;;;;;;;5.00;1.40;;;11.90;99.90;;;;;;4984529;28;20506;-76
2024/02/19 12:58:27;;;;;;;4.60;1.20;;;11.90;99.90;;;;;;4985972;28;20532;-76
2024/02/19 13:01:14;;;;;;;4.40;1.67;;;11.90;99.90;;;;;;4984403;28;20474;-76
2024/02/19 13:04:00;;;;;;;9.43;1.27;;;12.00;99.90;;;;;;4988286;28;20445;-76
2024/02/19 13:06:46;;;;;;;7.03;1.37;;;11.90;99.90;;;;;;4987280;28;20918;-77
2024/02/19 13:09:32;;;;;;;5.50;1.67;;;11.90;99.90;;;;;;4987263;28;20832;-76
2024/02/19 13:12:19;;;;;;;5.40;1.60;;;11.80;99.90;;;;;;4985746;28;20427;-76
2024/02/19 13:15:05;;;;;;;2.97;1.53;;;11.80;99.90;;;;;;4989261;28;20484;-76
2024/02/19 13:17:52;;;;;;;6.43;1.43;;;11.70;99.90;;;;;;4987128;28;20923;-76
2024/02/19 13:20:40;;;;;;;4.50;1.60;;;11.70;99.90;;;;;;4988893;28;20856;-76
2024/02/19 13:23:26;;;;;;;6.10;1.70;;;11.70;99.90;;;;;;4985820;28;20457;-76
2024/02/19 13:26:12;;;;;;;11.10;1.90;;;11.70;99.90;;;;;;4986210;28;20486;-76
2024/02/19 13:28:57;;;;;;;3.20;1.30;;;11.60;99.90;;;;;;4985315;28;21071;-76
2024/02/19 13:31:43;;;;;;;8.57;2.17;;;11.50;99.90;;;;;;4986296;28;20450;-76
2024/02/19 13:34:30;;;;;;;10.03;2.00;;;11.50;99.90;;;;;;4985811;28;20865;-76
2024/02/19 13:37:18;;;;;;;5.23;2.17;;;11.60;99.90;;;;;;4985593;28;20448;-76
2024/02/19 13:40:05;;;;;;;7.60;2.83;;;11.60;99.90;;;;;;4988680;28;20512;-76
2024/02/19 13:42:50;;;;;;;9.73;2.60;;;11.50;99.90;;;;;;4988579;28;20840;-76
2024/02/19 13:45:56;;;;;;;15.17;2.80;;;11.30;99.90;;;;;;4988450;28;20484;-76
2024/02/19 13:48:42;;;;;;;9.63;2.67;;;11.40;99.90;;;;;;4987738;28;20435;-76
2024/02/19 13:51:29;;;;;;;9.53;2.40;;;11.30;99.90;;;;;;4985083;28;20462;-77
2024/02/19 13:54:14;;;;;;;6.30;2.40;;;11.40;99.90;;;;;;4985908;28;20514;-76
2024/02/19 13:57:03;;;;;;;8.63;2.83;;;11.40;99.90;;;;;;4986921;28;20540;-76
2024/02/19 13:59:51;;;;;;;11.80;3.17;;;11.40;99.90;;;;;;4987509;28;20880;-75
2024/02/19 14:02:36;;;;;;;10.87;2.90;;;11.30;99.90;;;;;;4990445;28;20468;-76
2024/02/19 14:05:22;;;;;;;6.20;2.90;;;11.10;99.90;;;;;;4985501;28;20534;-76
2024/02/19 14:08:10;;;;;;;11.50;3.63;;;11.10;99.90;;;;;;4987588;28;20539;-76
2024/02/19 14:10:57;;;;;;;6.43;2.57;;;11.10;99.90;;;;;;4986119;28;20467;-75
2024/02/19 14:13:42;;;;;;;10.20;2.90;;;11.10;99.90;;;;;;4989751;28;20998;-76
2024/02/19 14:16:28;;;;;;;10.27;3.00;;;11.10;99.90;;;;;;4989149;28;20471;-76
2024/02/19 14:19:14;;;;;;;7.17;3.50;;;11.10;99.90;;;;;;4983408;28;20581;-76
2024/02/19 14:22:00;;;;;;;5.00;3.63;;;11.10;99.90;;;;;;4988276;28;20827;-76
2024/02/19 14:24:47;;;;;;;10.40;3.57;;;11.20;99.90;;;;;;4985941;28;20552;-76
2024/02/19 14:27:33;;;;;;;11.73;4.00;;;11.20;99.90;;;;;;4989061;28;20456;-76